BHS142 KFLL-MYGF
Flight info
| Callsign | BHS142 |
|---|---|
| Flight time | 0h 20m |
| Altitude | 13000 |
| Route | FEALX2 FEALX DCT PADUS |
| Aircraft | B737/M-SDE2E3FGHIRWXY/LB1 |
Departure
| Time | 2026-05-05 16:17 |
|---|---|
| Airport | Fort Lauderdale Hollywood International Airport (KFLL) |
Arrival
| Time | 2026-05-05 16:37 |
|---|---|
| Airport | Grand Bahama International Airport (MYGF) |
| Time | Latitude | Longitude | Altitude | Speed | Heading |
|---|---|---|---|---|---|
| 2026-05-05 16:03 | 26.07343 | -80.13639 | 9 ft | 0 kts | 104° |
| 2026-05-05 16:07 | 26.07346 | -80.13651 | 9 ft | 0 kts | 111° |
| 2026-05-05 16:07 | 26.07349 | -80.13664 | 9 ft | 2 kts | 81° |
| 2026-05-05 16:07 | 26.07343 | -80.13680 | 9 ft | 2 kts | 53° |
| 2026-05-05 16:08 | 26.07332 | -80.13691 | 9 ft | 2 kts | 24° |
| 2026-05-05 16:08 | 26.07322 | -80.13694 | 9 ft | 0 kts | 2° |
| 2026-05-05 16:08 | 26.07315 | -80.13693 | 9 ft | 1 kts | 358° |
| 2026-05-05 16:08 | 26.07314 | -80.13693 | 9 ft | 0 kts | 359° |
| 2026-05-05 16:10 | 26.07315 | -80.13693 | 9 ft | 0 kts | 359° |
| 2026-05-05 16:10 | 26.07338 | -80.13694 | 9 ft | 6 kts | 358° |
| 2026-05-05 16:10 | 26.07385 | -80.13698 | 9 ft | 7 kts | 355° |
| 2026-05-05 16:11 | 26.07426 | -80.13702 | 9 ft | 6 kts | 354° |
| 2026-05-05 16:11 | 26.07468 | -80.13792 | 9 ft | 5 kts | 266° |
| 2026-05-05 16:12 | 26.07467 | -80.13824 | 9 ft | 5 kts | 271° |
| 2026-05-05 16:12 | 26.07482 | -80.14022 | 9 ft | 24 kts | 271° |
| 2026-05-05 16:13 | 26.07489 | -80.14675 | 9 ft | 34 kts | 270° |
| 2026-05-05 16:13 | 26.07488 | -80.14907 | 9 ft | 34 kts | 270° |
| 2026-05-05 16:13 | 26.07490 | -80.15138 | 9 ft | 33 kts | 270° |
| 2026-05-05 16:14 | 26.07491 | -80.15579 | 9 ft | 31 kts | 270° |
| 2026-05-05 16:14 | 26.07494 | -80.16007 | 9 ft | 30 kts | 270° |
| 2026-05-05 16:15 | 26.07496 | -80.16406 | 9 ft | 27 kts | 270° |
| 2026-05-05 16:15 | 26.07556 | -80.16566 | 9 ft | 9 kts | 347° |
| 2026-05-05 16:16 | 26.07693 | -80.16493 | 9 ft | 9 kts | 87° |
| 2026-05-05 16:16 | 26.07695 | -80.16233 | 9 ft | 69 kts | 90° |
| 2026-05-05 16:17 | 26.07673 | -80.14597 | 158 ft | 157 kts | 92° |
| 2026-05-05 16:17 | 26.07619 | -80.13526 | 623 ft | 167 kts | 93° |
| 2026-05-05 16:18 | 26.07717 | -80.11098 | 1455 ft | 199 kts | 86° |
| 2026-05-05 16:18 | 26.07776 | -80.09677 | 1922 ft | 216 kts | 87° |
| 2026-05-05 16:18 | 26.07815 | -80.06195 | 2969 ft | 240 kts | 89° |
| 2026-05-05 16:19 | 26.07829 | -80.04247 | 3282 ft | 264 kts | 89° |
| 2026-05-05 16:19 | 26.07864 | -80.02196 | 3980 ft | 273 kts | 86° |
| 2026-05-05 16:19 | 26.09138 | -79.98344 | 5563 ft | 280 kts | 53° |
| 2026-05-05 16:20 | 26.11470 | -79.95055 | 7126 ft | 289 kts | 51° |
| 2026-05-05 16:20 | 26.13835 | -79.91582 | 8749 ft | 298 kts | 52° |
| 2026-05-05 16:21 | 26.16198 | -79.87970 | 10411 ft | 306 kts | 51° |
| 2026-05-05 16:22 | 26.20068 | -79.82042 | 12334 ft | 341 kts | 51° |
| 2026-05-05 16:22 | 26.22845 | -79.77779 | 13001 ft | 344 kts | 51° |
| 2026-05-05 16:23 | 26.25571 | -79.73583 | 12995 ft | 339 kts | 51° |
| 2026-05-05 16:23 | 26.26942 | -79.71474 | 12994 ft | 340 kts | 51° |
| 2026-05-05 16:23 | 26.29376 | -79.67057 | 12991 ft | 345 kts | 68° |
| 2026-05-05 16:24 | 26.29928 | -79.64510 | 12992 ft | 346 kts | 79° |
| 2026-05-05 16:24 | 26.30201 | -79.61837 | 12993 ft | 346 kts | 83° |
| 2026-05-05 16:24 | 26.30609 | -79.56532 | 12994 ft | 347 kts | 83° |
| 2026-05-05 16:25 | 26.30839 | -79.53887 | 12994 ft | 347 kts | 82° |
| 2026-05-05 16:25 | 26.31359 | -79.48633 | 12759 ft | 334 kts | 82° |
| 2026-05-05 16:25 | 26.31624 | -79.46146 | 12656 ft | 322 kts | 81° |
| 2026-05-05 16:26 | 26.32147 | -79.41338 | 12155 ft | 310 kts | 81° |
| 2026-05-05 16:26 | 26.32660 | -79.36618 | 11490 ft | 306 kts | 82° |
| 2026-05-05 16:27 | 26.32911 | -79.34275 | 11152 ft | 303 kts | 82° |
| 2026-05-05 16:27 | 26.33157 | -79.31979 | 10810 ft | 301 kts | 82° |
| 2026-05-05 16:27 | 26.33403 | -79.29685 | 10462 ft | 300 kts | 83° |
| 2026-05-05 16:27 | 26.33646 | -79.27417 | 10110 ft | 298 kts | 83° |
| 2026-05-05 16:28 | 26.33891 | -79.25121 | 9770 ft | 296 kts | 83° |
| 2026-05-05 16:28 | 26.34130 | -79.22874 | 9468 ft | 292 kts | 83° |
| 2026-05-05 16:28 | 26.34366 | -79.20659 | 9126 ft | 291 kts | 83° |
| 2026-05-05 16:28 | 26.34601 | -79.18446 | 8744 ft | 291 kts | 83° |
| 2026-05-05 16:29 | 26.34838 | -79.16215 | 8425 ft | 288 kts | 83° |
| 2026-05-05 16:29 | 26.35067 | -79.14024 | 8103 ft | 285 kts | 84° |
| 2026-05-05 16:29 | 26.35313 | -79.11845 | 7781 ft | 283 kts | 81° |
| 2026-05-05 16:29 | 26.35829 | -79.09763 | 7420 ft | 283 kts | 67° |
| 2026-05-05 16:30 | 26.36721 | -79.07819 | 7076 ft | 281 kts | 60° |
| 2026-05-05 16:30 | 26.37707 | -79.05972 | 6753 ft | 279 kts | 59° |
| 2026-05-05 16:30 | 26.38696 | -79.04115 | 6436 ft | 276 kts | 60° |
| 2026-05-05 16:30 | 26.39630 | -79.02293 | 6099 ft | 274 kts | 61° |
| 2026-05-05 16:31 | 26.40554 | -79.00440 | 5662 ft | 272 kts | 62° |
| 2026-05-05 16:31 | 26.41450 | -78.98623 | 5203 ft | 270 kts | 62° |
| 2026-05-05 16:31 | 26.42333 | -78.96822 | 4861 ft | 267 kts | 62° |
| 2026-05-05 16:31 | 26.43206 | -78.95046 | 4718 ft | 258 kts | 62° |
| 2026-05-05 16:32 | 26.44044 | -78.93343 | 4624 ft | 246 kts | 62° |
| 2026-05-05 16:32 | 26.44811 | -78.91785 | 4562 ft | 231 kts | 62° |
| 2026-05-05 16:32 | 26.45531 | -78.90325 | 4413 ft | 217 kts | 62° |
| 2026-05-05 16:32 | 26.46206 | -78.88958 | 4203 ft | 208 kts | 62° |
| 2026-05-05 16:33 | 26.46903 | -78.87563 | 3781 ft | 210 kts | 62° |
| 2026-05-05 16:33 | 26.47584 | -78.86209 | 3330 ft | 213 kts | 62° |
| 2026-05-05 16:33 | 26.48290 | -78.84798 | 2864 ft | 215 kts | 63° |
| 2026-05-05 16:33 | 26.48994 | -78.83387 | 2401 ft | 218 kts | 63° |
| 2026-05-05 16:34 | 26.49726 | -78.81921 | 2046 ft | 211 kts | 62° |
| 2026-05-05 16:34 | 26.50386 | -78.80605 | 1792 ft | 192 kts | 63° |
| 2026-05-05 16:34 | 26.50971 | -78.79430 | 1619 ft | 170 kts | 63° |
| 2026-05-05 16:34 | 26.51476 | -78.78414 | 1578 ft | 147 kts | 63° |
| 2026-05-05 16:35 | 26.51939 | -78.77505 | 1513 ft | 142 kts | 60° |
| 2026-05-05 16:35 | 26.52405 | -78.76639 | 1423 ft | 141 kts | 60° |
| 2026-05-05 16:35 | 26.52865 | -78.75737 | 1180 ft | 141 kts | 63° |
| 2026-05-05 16:35 | 26.53306 | -78.74844 | 892 ft | 137 kts | 66° |
| 2026-05-05 16:36 | 26.53709 | -78.73954 | 705 ft | 141 kts | 65° |
| 2026-05-05 16:36 | 26.54153 | -78.73006 | 431 ft | 149 kts | 65° |
| 2026-05-05 16:36 | 26.54620 | -78.72055 | 253 ft | 145 kts | 63° |
| 2026-05-05 16:36 | 26.55080 | -78.71147 | 65 ft | 140 kts | 65° |
| 2026-05-05 16:37 | 26.55523 | -78.70265 | 16 ft | 124 kts | 64° |
| 2026-05-05 16:37 | 26.55843 | -78.69617 | 14 ft | 57 kts | 54° |
| 2026-05-05 16:37 | 26.55924 | -78.69461 | 13 ft | 16 kts | 65° |
| 2026-05-05 16:37 | 26.55882 | -78.69403 | 13 ft | 18 kts | 204° |
| 2026-05-05 16:38 | 26.55757 | -78.69473 | 13 ft | 24 kts | 221° |
| 2026-05-05 16:38 | 26.55598 | -78.69630 | 14 ft | 39 kts | 220° |
| 2026-05-05 16:38 | 26.55386 | -78.69835 | 13 ft | 42 kts | 220° |
| 2026-05-05 16:38 | 26.55173 | -78.70049 | 14 ft | 41 kts | 218° |
| 2026-05-05 16:39 | 26.54991 | -78.70218 | 13 ft | 21 kts | 219° |
| 2026-05-05 16:39 | 26.54926 | -78.70248 | 13 ft | 9 kts | 174° |
| 2026-05-05 16:39 | 26.54871 | -78.70258 | 13 ft | 8 kts | 237° |
| 2026-05-05 16:39 | 26.54868 | -78.70276 | 13 ft | 0 kts | 275° |